Time;durP1;ratioP1;P1;durP2;ratioP2;P2;SDS_P1;SDS_P2;PMS_P1;PMS_P2;Temp;Humidity;BMP_temperature;BMP_pressure;BME280_temperature;BME280_humidity;BME280_pressure;Samples;Min_cycle;Max_cycle;Signal;HPM_P1;HPM_P2
2022/12/17 13:06:11;;;;;;;218.07;76.90;;;;;;;-141.97;100.00;47868.91;5036402;28;20604;-88
2022/12/17 13:08:37;;;;;;;125.20;53.53;;;;;;;-141.97;100.00;47893.91;5036938;28;20577;-87
2022/12/17 13:11:26;;;;;;;103.10;48.23;;;;;;;-141.97;100.00;47999.63;5018845;28;20228;-86
2022/12/17 13:13:54;;;;;;;112.57;56.17;;;;;;;-141.97;100.00;47886.22;5043672;28;20162;-87
2022/12/17 13:17:15;;;;;;;103.03;50.63;;;;;;;-141.97;100.00;47916.97;5037380;28;20168;-86
2022/12/17 13:19:42;;;;;;;64.10;34.57;;;;;;;-141.97;100.00;47907.34;4955648;29;20173;-87
2022/12/17 13:22:13;;;;;;;138.87;76.50;;;;;;;-141.97;100.00;47907.34;4955002;29;20215;-86
2022/12/17 13:24:43;;;;;;;319.87;173.03;;;;;;;-141.97;100.00;47868.91;4958823;29;20192;-86
2022/12/17 13:27:38;;;;;;;193.63;107.10;;;;;;;-141.97;100.00;47861.22;4947263;29;20287;-86
2022/12/17 13:30:21;;;;;;;88.37;47.10;;;;;;;-141.97;100.00;47845.84;4956621;29;20181;-87
2022/12/17 13:33:20;;;;;;;74.83;40.10;;;;;;;-141.97;100.00;47928.50;4955983;29;20184;-86
2022/12/17 13:35:56;;;;;;;100.63;53.03;;;;;;;-141.97;100.00;47884.28;4956136;29;20165;-87
2022/12/17 13:38:48;;;;;;;104.50;53.40;;;;;;;-141.97;100.00;47930.41;4955057;29;20181;-88
2022/12/17 13:41:18;;;;;;;78.90;40.17;;;;;;;-141.97;100.00;47895.81;4954368;29;20224;-87
2022/12/17 13:43:50;;;;;;;68.73;35.97;;;;;;;-141.97;100.00;47915.03;4954298;29;20208;-86
2022/12/17 13:46:27;;;;;;;42.40;24.57;;;;;;;-141.97;100.00;47928.50;4954454;29;20165;-87
2022/12/17 13:48:56;;;;;;;49.07;27.77;;;;;;;-141.97;100.00;47918.88;4954103;29;20175;-87
2022/12/17 13:51:22;;;;;;;49.60;26.30;;;;;;;-141.97;100.00;47886.22;4962990;28;20211;-88
2022/12/17 13:53:57;;;;;;;71.43;39.53;;;;;;;-141.97;100.00;47999.63;5019133;28;20220;-87
2022/12/17 13:56:31;;;;;;;88.43;44.67;;;;;;;-141.97;100.00;47838.16;5036402;28;20179;-87
2022/12/17 13:58:58;;;;;;;81.93;42.10;;;;;;;-141.97;100.00;47884.28;5054898;28;20653;-87
2022/12/17 14:01:27;;;;;;;97.23;49.27;;;;;;;-141.97;100.00;47907.34;5036277;28;20256;-88
2022/12/17 14:03:55;;;;;;;477.77;318.60;;;;;;;-141.97;100.00;47866.97;5054931;28;20189;-87
2022/12/17 14:06:24;;;;;;;341.07;190.03;;;;;;;-141.97;100.00;47838.16;5054649;28;20162;-89
2022/12/17 14:08:52;;;;;;;172.13;89.97;;;;;;;-141.97;100.00;47849.69;5054275;28;20161;-90
2022/12/17 14:14:07;;;;;;;358.43;184.63;;;;;;;-141.97;100.00;47863.13;5055020;28;20160;-86
2022/12/17 14:16:32;;;;;;;198.93;106.40;;;;;;;-141.97;100.00;47922.72;5037084;28;20592;-88
2022/12/17 14:18:58;;;;;;;219.77;111.97;;;;;;;-141.97;100.00;47876.59;5061789;28;20215;-89
2022/12/17 14:21:27;;;;;;;163.70;90.40;;;;;;;-141.97;100.00;47978.47;5047188;28;20635;-88
2022/12/17 14:23:54;;;;;;;101.60;47.87;;;;;;;-141.97;100.00;47872.75;5067248;28;20259;-89
2022/12/17 14:26:20;;;;;;;69.67;35.63;;;;;;;-141.97;100.00;47834.31;5066521;28;20172;-89
2022/12/17 14:28:52;;;;;;;104.73;51.17;;;;;;;-141.97;100.00;47851.59;5063334;28;20157;-88
2022/12/17 14:31:17;;;;;;;73.20;35.30;;;;;;;-141.97;100.00;47893.91;5056987;28;20196;-88
2022/12/17 14:33:44;;;;;;;70.87;36.67;;;;;;;-141.97;100.00;47803.56;5056746;28;20150;-88
2022/12/17 14:36:19;;;;;;;58.37;29.27;;;;;;;-141.97;100.00;47849.69;5055202;28;20165;-90
2022/12/17 14:39:09;;;;;;;76.60;36.53;;;;;;;-141.97;100.00;47838.16;5069838;28;20141;-86
2022/12/17 14:44:26;;;;;;;71.90;36.17;;;;;;;-141.97;100.00;47853.53;5060196;28;20269;-88
2022/12/17 14:47:07;;;;;;;62.93;31.20;;;;;;;-141.97;100.00;47907.34;5057750;28;20164;-88
2022/12/17 14:49:32;;;;;;;62.43;29.47;;;;;;;-141.97;100.00;47845.84;5056913;28;20160;-90
2022/12/17 14:51:58;;;;;;;74.90;37.50;;;;;;;-141.97;100.00;47834.31;5056789;28;20173;-88
2022/12/17 14:54:30;;;;;;;85.03;40.83;;;;;;;-141.97;100.00;47893.91;5042990;28;20220;-88
2022/12/17 14:56:58;;;;;;;68.47;31.63;;;;;;;-141.97;100.00;47757.41;5037129;28;20169;-88
2022/12/17 14:59:34;;;;;;;72.17;35.20;;;;;;;-141.97;100.00;47978.47;5056208;28;20158;-88
2022/12/17 15:02:22;;;;;;;73.30;34.20;;;;;;;-141.97;100.00;47972.72;5036875;28;20168;-88
2022/12/17 15:04:50;;;;;;;94.83;41.40;;;;;;;-141.97;100.00;47824.69;5062705;28;20208;-87
2022/12/17 15:07:28;;;;;;;86.77;39.07;;;;;;;-141.97;100.00;47972.72;5063089;28;20162;-88
2022/12/17 15:09:54;;;;;;;80.93;37.23;;;;;;;-141.97;100.00;47890.06;5062355;28;20157;-88
2022/12/17 15:12:21;;;;;;;88.13;39.37;;;;;;;-141.97;100.00;47915.03;5041221;28;20260;-90
2022/12/17 15:14:47;;;;;;;107.63;47.13;;;;;;;-141.97;100.00;47788.19;5045448;28;20205;-88
2022/12/17 15:17:13;;;;;;;110.07;49.57;;;;;;;-141.97;100.00;47943.88;5038071;28;20184;-88
2022/12/17 15:19:39;;;;;;;116.27;51.73;;;;;;;-141.97;100.00;47749.72;5039453;28;20195;-88
2022/12/17 15:22:04;;;;;;;223.20;106.17;;;;;;;-141.97;100.00;47980.41;5038066;28;20169;-88
2022/12/17 15:24:30;;;;;;;262.43;125.67;;;;;;;-141.97;100.00;47884.28;5037168;28;20300;-88
2022/12/17 15:26:55;;;;;;;165.67;82.07;;;;;;;-141.97;100.00;47938.09;5038263;28;20253;-88
2022/12/17 15:29:21;;;;;;;119.63;54.80;;;;;;;-141.97;100.00;47734.34;5058877;28;20221;-89
2022/12/17 15:31:46;;;;;;;112.77;54.27;;;;;;;-141.97;100.00;47953.50;5053982;28;20172;-89
2022/12/17 15:34:12;;;;;;;116.77;56.50;;;;;;;-141.97;100.00;47872.75;5054883;28;20213;-88
2022/12/17 15:36:37;;;;;;;202.37;95.23;;;;;;;-141.97;100.00;47911.19;5053675;28;20252;-88
2022/12/17 15:39:05;;;;;;;251.57;114.83;;;;;;;-141.97;100.00;47890.06;5054034;28;20622;-88
2022/12/17 15:44:14;;;;;;;196.03;93.13;;;;;;;-141.97;100.00;47811.25;5053895;28;20750;-88
2022/12/17 15:46:40;;;;;;;121.43;56.10;;;;;;;-141.97;100.00;47886.22;5036873;28;20173;-90
2022/12/17 15:49:05;;;;;;;112.17;51.27;;;;;;;-141.97;100.00;47909.28;5053876;28;20622;-89
2022/12/17 15:51:31;;;;;;;108.60;46.50;;;;;;;-141.97;100.00;47884.28;5057868;28;20639;-89
2022/12/17 15:53:56;;;;;;;105.47;47.27;;;;;;;-141.97;100.00;47922.72;5039182;28;20161;-89
2022/12/17 15:56:24;;;;;;;100.60;46.13;;;;;;;-141.97;100.00;47880.44;5054991;28;20513;-89
2022/12/17 15:58:49;;;;;;;93.07;41.27;;;;;;;-141.97;100.00;47888.13;5043669;28;20173;-88
2022/12/17 16:01:15;;;;;;;100.73;43.07;;;;;;;-141.97;100.00;47876.59;5044209;28;20165;-88
2022/12/17 16:03:41;;;;;;;98.00;42.43;;;;;;;-141.97;100.00;47842.00;5042060;28;20235;-89
2022/12/17 16:06:07;;;;;;;91.93;40.47;;;;;;;-141.97;100.00;47861.22;5054387;28;20621;-90
2022/12/17 16:08:32;;;;;;;94.90;40.87;;;;;;;-141.97;100.00;47811.25;5053470;28;20169;-89
2022/12/17 16:10:57;;;;;;;237.03;129.23;;;;;;;-141.97;100.00;47899.66;5055245;28;20168;-90
2022/12/17 16:13:23;;;;;;;187.17;97.37;;;;;;;-141.97;100.00;47863.13;5061266;28;20183;-89
2022/12/17 16:15:58;;;;;;;197.87;107.87;;;;;;;-141.97;100.00;47886.22;5052875;28;20165;-87
2022/12/17 16:18:24;;;;;;;125.50;59.43;;;;;;;-141.97;100.00;47903.50;5045176;28;20169;-88
2022/12/17 16:20:49;;;;;;;140.50;69.53;;;;;;;-141.97;100.00;47855.44;5043693;28;20199;-90
2022/12/17 16:23:15;;;;;;;160.20;78.20;;;;;;;-141.97;100.00;47884.28;5060297;28;20189;-88
2022/12/17 16:25:41;;;;;;;111.20;51.47;;;;;;;-141.97;100.00;47880.44;5039123;28;20548;-89
2022/12/17 16:28:06;;;;;;;111.70;49.87;;;;;;;-141.97;100.00;47868.91;5058568;28;20161;-89
2022/12/17 16:30:32;;;;;;;201.73;109.50;;;;;;;-141.97;100.00;48045.75;5052261;28;20161;-88
2022/12/17 16:32:58;;;;;;;130.57;60.77;;;;;;;-141.97;100.00;47895.81;5014553;28;20165;-89
2022/12/17 16:35:23;;;;;;;96.40;44.67;;;;;;;-141.97;100.00;47972.72;5017687;28;20229;-90
2022/12/17 16:37:49;;;;;;;94.70;43.67;;;;;;;-141.97;100.00;47886.22;5019368;28;20218;-88
2022/12/17 16:40:14;;;;;;;189.83;92.27;;;;;;;-141.97;100.00;47830.47;5018957;28;20178;-88
2022/12/17 16:42:40;;;;;;;168.47;79.03;;;;;;;-141.97;100.00;47749.72;5018548;28;20205;-88
2022/12/17 16:45:06;;;;;;;119.30;54.73;;;;;;;-141.97;100.00;47738.19;5019629;28;20197;-88
2022/12/17 16:47:32;;;;;;;109.87;47.70;;;;;;;-141.97;100.00;47963.09;5019164;28;20690;-88
2022/12/17 16:49:57;;;;;;;250.27;72.97;;;;;;;-141.97;100.00;47820.84;5019582;28;20246;-88
2022/12/17 16:52:22;;;;;;;98.93;39.20;;;;;;;-141.97;100.00;47878.53;5017412;28;20178;-89
2022/12/17 16:54:48;;;;;;;114.20;49.07;;;;;;;-141.97;100.00;47961.19;5020131;28;20166;-90
2022/12/17 16:57:13;;;;;;;112.97;45.10;;;;;;;-141.97;100.00;47924.66;5018618;28;20645;-90
2022/12/17 16:59:39;;;;;;;122.23;49.33;;;;;;;-141.97;100.00;47959.25;5034128;28;20170;-89
2022/12/17 17:02:12;;;;;;;171.37;79.10;;;;;;;-141.97;100.00;47941.94;5016713;28;20561;-90
2022/12/17 17:04:38;;;;;;;127.10;53.27;;;;;;;-141.97;100.00;47930.41;5016892;28;20206;-88
2022/12/17 17:07:04;;;;;;;125.63;52.10;;;;;;;-141.97;100.00;47840.06;5017038;28;20174;-89
2022/12/17 17:09:29;;;;;;;124.93;49.77;;;;;;;-141.97;100.00;47991.94;5016707;28;20174;-87
2022/12/17 17:11:56;;;;;;;123.57;49.23;;;;;;;-141.97;100.00;47903.50;5016679;28;20190;-88
2022/12/17 17:14:22;;;;;;;130.00;48.40;;;;;;;-141.97;100.00;47961.19;5016430;28;20194;-89
2022/12/17 17:16:48;;;;;;;124.07;50.50;;;;;;;-141.97;100.00;47930.41;5017375;28;20166;-89
2022/12/17 17:19:14;;;;;;;121.17;48.73;;;;;;;-141.97;100.00;47949.66;5016463;28;20233;-88
2022/12/17 17:21:46;;;;;;;117.00;44.97;;;;;;;-141.97;100.00;47909.28;5015103;28;20197;-89
2022/12/17 17:24:14;;;;;;;187.07;67.90;;;;;;;-141.97;100.00;47830.47;5016135;28;20202;-88
2022/12/17 17:26:40;;;;;;;175.13;64.17;;;;;;;-141.97;100.00;47911.19;5016701;28;20189;-88
2022/12/17 17:29:06;;;;;;;154.90;58.63;;;;;;;-141.97;100.00;47943.88;5017254;28;20166;-89
2022/12/17 17:31:32;;;;;;;250.93;84.90;;;;;;;-141.97;100.00;47772.78;5016883;28;20615;-90
2022/12/17 17:33:58;;;;;;;277.37;89.87;;;;;;;-141.97;100.00;47880.44;5015473;28;20167;-89
2022/12/17 17:36:29;;;;;;;154.97;56.73;;;;;;;-141.97;100.00;47918.88;5013975;28;20711;-89
2022/12/17 17:38:57;;;;;;;113.73;43.73;;;;;;;-141.97;100.00;47836.22;5013779;28;20175;-89
2022/12/17 17:41:24;;;;;;;129.43;54.00;;;;;;;-141.97;100.00;47922.72;5015208;28;20170;-87
2022/12/17 17:43:55;;;;;;;129.13;48.07;;;;;;;-141.97;100.00;47938.09;5014825;28;20249;-88
2022/12/17 17:46:21;;;;;;;142.67;58.63;;;;;;;-141.97;100.00;47909.28;5015016;28;20174;-88
2022/12/17 17:48:48;;;;;;;147.00;59.57;;;;;;;-141.97;100.00;47886.22;5017461;28;20173;-88
2022/12/17 17:51:22;;;;;;;147.60;60.67;;;;;;;-141.97;100.00;48018.84;5014391;28;20182;-88
2022/12/17 17:53:50;;;;;;;183.47;87.37;;;;;;;-141.97;100.00;47811.25;5015845;28;20624;-88
2022/12/17 17:56:20;;;;;;;209.90;92.93;;;;;;;-141.97;100.00;47899.66;5015174;28;20167;-89
2022/12/17 17:58:49;;;;;;;156.67;65.27;;;;;;;-141.97;100.00;47915.03;5020183;28;20167;-88
2022/12/17 18:01:18;;;;;;;144.17;57.40;;;;;;;-141.97;100.00;47920.81;5015209;28;20210;-88
2022/12/17 18:03:44;;;;;;;127.17;50.20;;;;;;;-141.97;100.00;47978.47;5014525;28;20278;-89
2022/12/17 18:06:12;;;;;;;120.50;45.57;;;;;;;-141.97;100.00;47895.81;5015589;28;20309;-88
2022/12/17 18:08:38;;;;;;;115.00;42.43;;;;;;;-141.97;100.00;48030.38;5014786;28;20175;-89
2022/12/17 18:11:05;;;;;;;120.03;46.63;;;;;;;-141.97;100.00;47936.19;5016544;28;20526;-89
2022/12/17 18:16:16;;;;;;;129.77;49.87;;;;;;;-141.97;100.00;47995.78;5015752;28;20178;-88
2022/12/17 18:18:41;;;;;;;128.60;49.03;;;;;;;-141.97;100.00;48018.84;5015176;28;20166;-89
2022/12/17 18:21:13;;;;;;;129.57;49.50;;;;;;;-141.97;100.00;47938.09;5016221;28;20193;-87
2022/12/17 18:23:39;;;;;;;152.00;65.20;;;;;;;-141.97;100.00;47928.50;5014620;28;20191;-89
2022/12/17 18:26:14;;;;;;;204.13;91.70;;;;;;;-141.97;100.00;47930.41;5013935;28;20575;-89
2022/12/17 18:28:41;;;;;;;167.63;69.13;;;;;;;-141.97;100.00;47911.19;5017113;28;20170;-86
2022/12/17 18:31:12;;;;;;;156.77;56.77;;;;;;;-141.97;100.00;47868.91;5034742;28;20159;-89
2022/12/17 18:33:40;;;;;;;142.63;53.27;;;;;;;-141.97;100.00;47928.50;5027383;28;20174;-90
2022/12/17 18:36:15;;;;;;;149.30;55.93;;;;;;;-141.97;100.00;47905.44;5031438;28;20270;-88
2022/12/17 18:38:41;;;;;;;154.77;60.10;;;;;;;-141.97;100.00;47934.25;5028097;28;20174;-87
2022/12/17 18:44:03;;;;;;;145.40;53.10;;;;;;;-141.97;100.00;47876.59;5019872;28;20210;-89
2022/12/17 18:46:30;;;;;;;154.27;62.13;;;;;;;-141.97;100.00;47922.72;5022656;28;20246;-86
2022/12/17 18:49:00;;;;;;;138.00;51.27;;;;;;;-141.97;100.00;47893.91;5021770;28;20163;-89
2022/12/17 18:51:27;;;;;;;166.73;59.57;;;;;;;-141.97;100.00;47895.81;5022792;28;20218;-87
2022/12/17 18:54:00;;;;;;;164.43;59.57;;;;;;;-141.97;100.00;47830.47;5030038;28;20575;-89
2022/12/17 18:56:27;;;;;;;153.93;58.03;;;;;;;-141.97;100.00;47911.19;5023467;28;20178;-89
2022/12/17 18:58:53;;;;;;;178.33;65.73;;;;;;;-141.97;100.00;48045.75;5020302;28;20569;-88
2022/12/17 19:01:22;;;;;;;179.47;67.17;;;;;;;-141.97;100.00;47920.81;5014982;28;20170;-89
2022/12/17 19:03:48;;;;;;;164.20;61.43;;;;;;;-141.97;100.00;47920.81;5030443;28;20198;-89
2022/12/17 19:06:13;;;;;;;179.83;68.57;;;;;;;-141.97;100.00;47913.13;5014095;28;20167;-88
2022/12/17 19:08:39;;;;;;;190.23;78.93;;;;;;;-141.97;100.00;47901.59;5014710;28;20177;-88
2022/12/17 19:11:09;;;;;;;224.97;94.40;;;;;;;-141.97;100.00;47955.41;5016661;28;20171;-88
2022/12/17 19:13:34;;;;;;;295.93;125.43;;;;;;;-141.97;100.00;47916.97;5016208;28;20635;-87
2022/12/17 19:16:16;;;;;;;369.67;151.00;;;;;;;-141.97;100.00;48009.22;5013635;28;20169;-88
2022/12/17 19:18:42;;;;;;;340.50;138.90;;;;;;;-141.97;100.00;47955.41;5012201;28;20601;-88
2022/12/17 19:21:10;;;;;;;241.13;94.63;;;;;;;-141.97;100.00;47916.97;5011876;28;20191;-88
2022/12/17 19:23:36;;;;;;;311.10;136.07;;;;;;;-141.97;100.00;48007.31;5016633;28;20214;-87
2022/12/17 19:26:31;;;;;;;412.70;165.40;;;;;;;-141.97;100.00;47934.25;5013311;28;20626;-87
2022/12/17 19:28:59;;;;;;;345.60;134.00;;;;;;;-141.97;100.00;47955.41;4975605;28;20213;-89
2022/12/17 19:31:27;;;;;;;253.00;100.27;;;;;;;-141.97;100.00;47943.88;4992126;28;20167;-88
2022/12/17 19:33:58;;;;;;;263.40;109.90;;;;;;;-141.97;100.00;47916.97;4992721;28;20187;-88
2022/12/17 19:36:25;;;;;;;277.47;114.87;;;;;;;-141.97;100.00;47934.25;4975576;28;20311;-88
2022/12/17 19:38:52;;;;;;;275.87;103.33;;;;;;;-141.97;100.00;47866.97;4976141;28;20270;-90
2022/12/17 19:41:17;;;;;;;486.13;197.30;;;;;;;-141.97;100.00;47884.28;4975720;28;20179;-89
2022/12/17 19:43:45;;;;;;;403.50;148.60;;;;;;;-141.97;100.00;47907.34;4992603;28;20639;-89
2022/12/17 19:46:13;;;;;;;439.27;167.23;;;;;;;-141.97;100.00;47888.13;4991810;28;20195;-87
2022/12/17 19:48:39;;;;;;;409.17;151.77;;;;;;;-141.97;100.00;47938.09;4976393;28;20674;-89
2022/12/17 19:51:07;;;;;;;390.90;145.80;;;;;;;-141.97;100.00;47984.25;4976160;28;20249;-88
2022/12/17 19:53:37;;;;;;;363.97;139.00;;;;;;;-141.97;100.00;47893.91;4975484;28;20210;-90
2022/12/17 19:56:12;;;;;;;345.43;127.67;;;;;;;-141.97;100.00;47915.03;4991366;28;20174;-89
2022/12/17 19:58:41;;;;;;;306.17;116.90;;;;;;;-141.97;100.00;47913.13;4976285;28;20186;-89
2022/12/17 20:01:11;;;;;;;213.80;82.53;;;;;;;-141.97;100.00;47928.50;5000350;28;20174;-87
2022/12/17 20:03:37;;;;;;;196.10;70.33;;;;;;;-141.97;100.00;47930.41;4987389;28;20219;-87
2022/12/17 20:06:04;;;;;;;161.13;58.77;;;;;;;-141.97;100.00;47980.41;5009924;28;20186;-88
2022/12/17 20:08:31;;;;;;;187.87;71.60;;;;;;;-141.97;100.00;47930.41;4997674;28;20170;-88
2022/12/17 20:10:56;;;;;;;204.00;78.53;;;;;;;-141.97;100.00;47903.50;5014353;28;20236;-88
2022/12/17 20:13:22;;;;;;;246.17;100.77;;;;;;;-141.97;100.00;47926.56;5013771;28;20155;-88
2022/12/17 20:15:47;;;;;;;238.27;95.53;;;;;;;-141.97;100.00;47807.41;5014774;28;20195;-91
2022/12/17 20:18:13;;;;;;;217.73;85.00;;;;;;;-141.97;100.00;47865.06;5015489;28;20172;-88
2022/12/17 20:20:38;;;;;;;225.50;90.33;;;;;;;-141.97;100.00;47888.13;5012469;28;20189;-89
2022/12/17 20:23:03;;;;;;;236.63;88.97;;;;;;;-141.97;100.00;47890.06;5013561;28;20631;-88
2022/12/17 20:25:29;;;;;;;242.13;91.73;;;;;;;-141.97;100.00;47853.53;5013085;28;20208;-88
2022/12/17 20:27:54;;;;;;;179.83;69.40;;;;;;;-141.97;100.00;47880.44;5029403;28;20201;-89
2022/12/17 20:30:23;;;;;;;153.90;56.93;;;;;;;-141.97;100.00;47845.84;5029011;28;20539;-87
2022/12/17 20:32:52;;;;;;;95.47;37.70;;;;;;;-141.97;100.00;47920.81;5012729;28;20174;-88
2022/12/17 20:35:18;;;;;;;115.17;48.10;;;;;;;-141.97;100.00;47859.28;5013368;28;20151;-89
2022/12/17 20:37:43;;;;;;;124.00;50.30;;;;;;;-141.97;100.00;48009.22;5012884;28;20221;-89
2022/12/17 20:40:10;;;;;;;200.27;71.97;;;;;;;-141.97;100.00;47861.22;5012817;28;20675;-87
2022/12/17 20:42:35;;;;;;;132.40;48.43;;;;;;;-141.97;100.00;47920.81;5029766;28;20205;-88
2022/12/17 20:45:01;;;;;;;174.63;69.10;;;;;;;-141.97;100.00;47976.56;5012103;28;20190;-88
2022/12/17 20:47:26;;;;;;;151.13;61.37;;;;;;;-141.97;100.00;47922.72;5014476;28;20197;-89
2022/12/17 20:49:51;;;;;;;194.73;79.93;;;;;;;-141.97;100.00;47824.69;5028196;28;20605;-88
2022/12/17 20:52:17;;;;;;;184.10;70.83;;;;;;;-141.97;100.00;48022.69;5011458;28;20175;-88
2022/12/17 20:54:42;;;;;;;138.00;52.03;;;;;;;-141.97;100.00;47849.69;5028008;28;20205;-88
2022/12/17 20:57:08;;;;;;;219.47;89.33;;;;;;;-141.97;100.00;47857.38;5013842;28;20213;-88
2022/12/17 20:59:33;;;;;;;280.67;116.30;;;;;;;-141.97;100.00;47853.53;5013261;28;20249;-90
2022/12/17 21:01:59;;;;;;;183.00;73.03;;;;;;;-141.97;100.00;47868.91;5011447;28;20181;-88
2022/12/17 21:04:24;;;;;;;143.40;57.43;;;;;;;-141.97;100.00;47922.72;5017446;28;20205;-87
2022/12/17 21:06:49;;;;;;;151.73;58.20;;;;;;;-141.97;100.00;47845.84;5021625;28;20170;-88
2022/12/17 21:09:17;;;;;;;117.13;45.33;;;;;;;-141.97;100.00;47968.88;5023982;28;20225;-88
2022/12/17 21:11:43;;;;;;;150.00;53.33;;;;;;;-141.97;100.00;47945.81;5013168;28;20694;-88
2022/12/17 21:14:14;;;;;;;119.90;45.43;;;;;;;-141.97;100.00;47926.56;5012918;28;20159;-89
2022/12/17 21:16:40;;;;;;;105.03;44.03;;;;;;;-141.97;100.00;47838.16;5012466;28;20687;-88
2022/12/17 21:19:10;;;;;;;120.03;44.63;;;;;;;-141.97;100.00;47976.56;5027784;28;20174;-88
2022/12/17 21:21:37;;;;;;;116.93;45.27;;;;;;;-141.97;100.00;47853.53;5014042;28;20166;-87
2022/12/17 21:24:03;;;;;;;123.47;46.60;;;;;;;-141.97;100.00;47928.50;4997627;28;20720;-87
2022/12/17 21:26:34;;;;;;;176.87;62.83;;;;;;;-141.97;100.00;47955.41;5015135;28;20161;-88
2022/12/17 21:29:01;;;;;;;142.47;54.40;;;;;;;-141.97;100.00;47805.47;5015433;28;20619;-88
2022/12/17 21:31:41;;;;;;;114.93;45.37;;;;;;;-141.97;100.00;47928.50;5015348;28;20162;-88
2022/12/17 21:34:10;;;;;;;122.70;45.37;;;;;;;-141.97;100.00;47911.19;5016991;28;20162;-87
2022/12/17 21:36:36;;;;;;;158.33;58.63;;;;;;;-141.97;100.00;47888.13;5038000;28;20250;-88
2022/12/17 21:39:03;;;;;;;205.90;79.10;;;;;;;-141.97;100.00;47924.66;5019843;28;20179;-88
2022/12/17 21:41:33;;;;;;;152.67;56.33;;;;;;;-141.97;100.00;47888.13;5015624;28;20564;-88
2022/12/17 21:44:02;;;;;;;138.17;52.97;;;;;;;-141.97;100.00;47938.09;5014452;28;20278;-88
2022/12/17 21:46:27;;;;;;;132.63;51.50;;;;;;;-141.97;100.00;47918.88;5014218;28;20175;-87
2022/12/17 21:48:55;;;;;;;133.50;51.20;;;;;;;-141.97;100.00;47932.34;5014396;28;20237;-88
2022/12/17 21:51:21;;;;;;;131.40;52.27;;;;;;;-141.97;100.00;47924.66;5015396;28;20175;-88
2022/12/17 21:53:50;;;;;;;121.03;47.27;;;;;;;-141.97;100.00;47980.41;5016440;28;20222;-88
2022/12/17 21:56:17;;;;;;;114.60;44.73;;;;;;;-141.97;100.00;47953.50;5014625;28;20179;-86
2022/12/17 21:58:44;;;;;;;123.77;46.50;;;;;;;-141.97;100.00;47945.81;5030929;28;20166;-88
2022/12/17 22:01:14;;;;;;;118.40;46.67;;;;;;;-141.97;100.00;47903.50;5015030;28;20190;-88
2022/12/17 22:03:40;;;;;;;117.43;46.60;;;;;;;-141.97;100.00;47909.28;5030255;28;20614;-88
2022/12/17 22:06:07;;;;;;;121.97;46.37;;;;;;;-141.97;100.00;47955.41;5013682;28;20197;-88
2022/12/17 22:08:33;;;;;;;122.57;46.97;;;;;;;-141.97;100.00;47941.94;5013859;28;20174;-88
2022/12/17 22:10:58;;;;;;;118.10;46.17;;;;;;;-141.97;100.00;47940.03;5031422;28;20209;-88
2022/12/17 22:16:08;;;;;;;196.50;80.93;;;;;;;-141.97;100.00;47849.69;5014326;28;20258;-88
2022/12/17 22:18:33;;;;;;;279.63;116.57;;;;;;;-141.97;100.00;47888.13;5029079;28;20198;-87
2022/12/17 22:21:00;;;;;;;298.50;119.77;;;;;;;-141.97;100.00;47884.28;5013861;28;20590;-88
2022/12/17 22:23:26;;;;;;;229.30;93.93;;;;;;;-141.97;100.00;47957.34;5013624;28;20202;-87
2022/12/17 22:25:51;;;;;;;219.57;91.17;;;;;;;-141.97;100.00;47915.03;5013480;28;20159;-88
2022/12/17 22:28:17;;;;;;;263.47;104.37;;;;;;;-141.97;100.00;47870.81;5012711;28;20170;-88
2022/12/17 22:33:26;;;;;;;372.67;149.30;;;;;;;-141.97;100.00;47897.75;5013037;28;20258;-88
2022/12/17 22:35:51;;;;;;;361.60;147.83;;;;;;;-141.97;100.00;47930.41;5013643;28;20163;-87
2022/12/17 22:38:17;;;;;;;287.03;116.77;;;;;;;-141.97;100.00;47865.06;5028549;28;20579;-88
2022/12/17 22:40:42;;;;;;;328.50;112.93;;;;;;;-141.97;100.00;47893.91;5028601;28;20317;-87
2022/12/17 22:43:29;;;;;;;290.30;101.63;;;;;;;-141.97;100.00;47928.50;5019928;28;20204;-87
2022/12/17 22:46:02;;;;;;;322.37;77.90;;;;;;;-141.97;100.00;47918.88;5032861;28;20155;-86
2022/12/17 22:48:31;;;;;;;356.30;82.53;;;;;;;-141.97;100.00;47901.59;5034304;28;20202;-87
2022/12/17 22:50:57;;;;;;;281.63;74.77;;;;;;;-141.97;100.00;47953.50;5047639;28;20163;-87
2022/12/17 22:53:23;;;;;;;272.50;66.47;;;;;;;-141.97;100.00;47941.94;5009888;28;20185;-85
2022/12/17 22:55:49;;;;;;;261.07;89.37;;;;;;;-141.97;100.00;47949.66;5029792;28;20171;-86
2022/12/17 22:58:16;;;;;;;229.03;70.70;;;;;;;-141.97;100.00;47861.22;5039463;28;20194;-87
2022/12/17 23:00:42;;;;;;;289.70;83.53;;;;;;;-141.97;100.00;47961.19;5019033;28;20261;-87
2022/12/17 23:03:07;;;;;;;257.97;77.23;;;;;;;-141.97;100.00;47936.19;5017423;28;20666;-87
2022/12/17 23:05:32;;;;;;;223.07;68.90;;;;;;;-141.97;100.00;47924.66;5014902;28;20249;-87
2022/12/17 23:07:58;;;;;;;171.70;54.67;;;;;;;-141.97;100.00;47938.09;5004230;28;20158;-87
2022/12/17 23:10:26;;;;;;;159.80;55.90;;;;;;;-141.97;100.00;47918.88;5024483;28;20693;-87
2022/12/17 23:12:53;;;;;;;229.70;76.37;;;;;;;-141.97;100.00;47926.56;5020929;28;20269;-88
2022/12/17 23:15:31;;;;;;;236.77;86.70;;;;;;;-141.97;100.00;47961.19;5017549;28;20551;-88
2022/12/17 23:17:59;;;;;;;174.73;65.20;;;;;;;-141.97;100.00;47930.41;5029270;28;20543;-89
2022/12/17 23:20:27;;;;;;;143.80;53.37;;;;;;;-141.97;100.00;47870.81;5013050;28;20761;-88
2022/12/17 23:22:52;;;;;;;110.57;44.63;;;;;;;-141.97;100.00;47957.34;5027898;28;20270;-87
2022/12/17 23:25:18;;;;;;;131.47;59.37;;;;;;;-141.97;100.00;47938.09;5027633;28;20281;-88
2022/12/17 23:27:44;;;;;;;149.17;66.30;;;;;;;-141.97;100.00;47932.34;4994696;28;20362;-88
2022/12/17 23:30:11;;;;;;;142.73;62.17;;;;;;;-141.97;100.00;47938.09;5011153;28;20598;-87
2022/12/17 23:32:37;;;;;;;160.17;63.70;;;;;;;-141.97;100.00;47830.47;5010919;28;20167;-87
2022/12/17 23:35:03;;;;;;;135.47;56.47;;;;;;;-141.97;100.00;47957.34;5012237;28;20163;-87
2022/12/17 23:37:28;;;;;;;127.47;53.83;;;;;;;-141.97;100.00;48011.16;5012116;28;20230;-87
2022/12/17 23:39:54;;;;;;;123.17;53.43;;;;;;;-141.97;100.00;47941.94;5013131;28;20257;-86
2022/12/17 23:42:19;;;;;;;130.80;54.53;;;;;;;-141.97;100.00;47926.56;5034251;28;20201;-86
2022/12/17 23:44:45;;;;;;;123.43;53.57;;;;;;;-141.97;100.00;47980.41;5011716;28;20194;-87
2022/12/17 23:47:10;;;;;;;122.90;54.30;;;;;;;-141.97;100.00;48009.22;5011136;28;20182;-87
2022/12/17 23:49:35;;;;;;;119.63;52.40;;;;;;;-141.97;100.00;47818.94;5012257;28;20619;-87
2022/12/17 23:52:01;;;;;;;115.40;50.53;;;;;;;-141.97;100.00;47818.94;5012143;28;20170;-87
2022/12/17 23:54:26;;;;;;;112.40;49.03;;;;;;;-141.97;100.00;47834.31;5012180;28;20273;-85
2022/12/17 23:56:52;;;;;;;102.07;46.17;;;;;;;-141.97;100.00;47991.94;5027566;28;20194;-88
2022/12/17 23:59:17;;;;;;;105.33;47.40;;;;;;;-141.97;100.00;48041.91;5011915;28;20170;-87
